createdAt,value
2023-05-05T00:00:20.380Z,249.20
2023-05-05T00:01:20.461Z,249.03
2023-05-05T00:02:20.502Z,249.09
2023-05-05T00:03:20.563Z,248.88
2023-05-05T00:04:20.677Z,249.29
2023-05-05T00:05:20.600Z,249.06
2023-05-05T00:06:20.638Z,249.53
2023-05-05T00:07:20.732Z,249.37
2023-05-05T00:08:21.029Z,248.79
2023-05-05T00:09:20.800Z,249.44
2023-05-05T00:10:20.864Z,249.00
2023-05-05T00:11:20.924Z,248.80
2023-05-05T00:12:20.961Z,249.17
2023-05-05T00:13:21.058Z,249.07
2023-05-05T00:14:21.086Z,249.19
2023-05-05T00:15:21.162Z,248.89
2023-05-05T00:16:21.223Z,249.03
2023-05-05T00:17:21.297Z,248.97
2023-05-05T00:18:21.336Z,249.10
2023-05-05T00:19:21.375Z,249.31
2023-05-05T00:20:21.434Z,248.65
2023-05-05T00:21:21.506Z,248.95
2023-05-05T00:22:21.604Z,249.09
2023-05-05T00:23:21.633Z,248.90
2023-05-05T00:24:21.636Z,249.15
2023-05-05T00:25:21.675Z,249.15
2023-05-05T00:26:21.775Z,248.78
2023-05-05T00:27:21.847Z,248.84
2023-05-05T00:28:21.857Z,248.47
2023-05-05T00:29:21.879Z,248.32
2023-05-05T00:30:21.934Z,248.78
2023-05-05T00:31:22.089Z,248.93
2023-05-05T00:32:22.039Z,249.06
2023-05-05T00:33:22.042Z,249.03
2023-05-05T00:34:22.157Z,248.86
2023-05-05T00:35:22.148Z,249.00
2023-05-05T00:36:22.232Z,249.45
2023-05-05T00:37:22.227Z,249.47
2023-05-05T00:38:22.345Z,249.14
2023-05-05T00:39:22.335Z,248.82
2023-05-05T00:40:22.383Z,248.61
2023-05-05T00:41:22.476Z,248.86
2023-05-05T00:42:22.488Z,248.62
2023-05-05T00:43:22.500Z,249.18
2023-05-05T00:44:22.593Z,249.16
2023-05-05T00:45:22.639Z,248.98
2023-05-05T00:46:22.725Z,249.33
2023-05-05T00:47:22.711Z,249.08
2023-05-05T00:48:22.764Z,248.99
2023-05-05T00:49:22.827Z,248.61
2023-05-05T00:50:22.869Z,248.95
2023-05-05T00:51:22.947Z,248.86
2023-05-05T00:52:22.944Z,248.40
2023-05-05T00:53:22.992Z,248.83
2023-05-05T00:54:23.057Z,248.63
2023-05-05T00:55:23.109Z,248.34
2023-05-05T00:56:23.111Z,249.13
2023-05-05T00:57:23.187Z,249.13
2023-05-05T00:58:23.236Z,248.89
2023-05-05T00:59:23.233Z,248.31
2023-05-05T01:00:23.328Z,248.58
2023-05-05T01:01:23.362Z,248.45
2023-05-05T01:02:23.417Z,248.80
2023-05-05T01:03:23.588Z,248.86
2023-05-05T01:04:23.572Z,249.07
2023-05-05T01:05:23.560Z,248.48
2023-05-05T01:06:23.685Z,248.54
2023-05-05T01:07:23.663Z,248.82
2023-05-05T01:08:23.672Z,248.56
2023-05-05T01:09:23.729Z,248.71
2023-05-05T01:10:23.939Z,248.42
2023-05-05T01:11:23.831Z,249.34
2023-05-05T01:12:23.905Z,248.71
2023-05-05T01:13:23.939Z,248.99
2023-05-05T01:14:23.973Z,248.79
2023-05-05T01:15:24.022Z,249.34
2023-05-05T01:16:24.114Z,248.83
2023-05-05T01:17:24.167Z,249.00
2023-05-05T01:18:24.150Z,248.96
2023-05-05T01:19:24.205Z,249.72
2023-05-05T01:20:24.266Z,248.56
2023-05-05T01:21:24.346Z,249.16
2023-05-05T01:22:24.339Z,249.04
2023-05-05T01:23:25.056Z,248.84
2023-05-05T01:24:24.336Z,248.67
2023-05-05T01:25:24.402Z,248.14
2023-05-05T01:26:24.433Z,248.82
2023-05-05T01:27:24.523Z,248.76
2023-05-05T01:28:24.667Z,248.48
2023-05-05T01:29:24.621Z,249.01
2023-05-05T01:30:24.690Z,248.39
2023-05-05T01:31:24.774Z,249.10
2023-05-05T01:32:24.771Z,248.50
2023-05-05T01:33:24.761Z,248.69
2023-05-05T01:34:24.873Z,249.03
2023-05-05T01:35:24.879Z,248.77
2023-05-05T01:36:24.937Z,248.75
2023-05-05T01:37:25.015Z,248.81
2023-05-05T01:38:24.949Z,248.86
2023-05-05T01:39:25.028Z,248.58
2023-05-05T01:40:25.043Z,248.94
2023-05-05T01:41:25.126Z,249.11
2023-05-05T01:42:25.138Z,249.09
2023-05-05T01:43:25.256Z,248.74
2023-05-05T01:44:25.292Z,248.69
2023-05-05T01:45:25.319Z,248.69
2023-05-05T01:46:25.469Z,248.94
2023-05-05T01:47:25.384Z,249.09
2023-05-05T01:48:25.410Z,249.07
2023-05-05T01:49:25.507Z,248.60
2023-05-05T01:50:25.576Z,248.21
2023-05-05T01:51:25.575Z,249.11
2023-05-05T01:52:25.640Z,249.06
2023-05-05T01:53:25.755Z,248.44
2023-05-05T01:54:25.786Z,248.77
2023-05-05T01:55:25.811Z,248.64
2023-05-05T01:56:25.927Z,248.37
2023-05-05T01:57:25.908Z,248.85
2023-05-05T01:58:25.964Z,249.29
2023-05-05T01:59:25.977Z,248.92
2023-05-05T02:00:26.069Z,249.14
2023-05-05T02:01:26.183Z,248.72
2023-05-05T02:02:26.118Z,248.64
2023-05-05T02:03:26.123Z,248.92
2023-05-05T02:04:26.148Z,248.51
2023-05-05T02:05:26.260Z,248.96
2023-05-05T02:06:26.246Z,249.17
2023-05-05T02:07:26.337Z,248.80
2023-05-05T02:08:26.497Z,248.96
2023-05-05T02:09:26.436Z,249.06
2023-05-05T02:10:26.486Z,249.61
2023-05-05T02:11:26.566Z,249.27
2023-05-05T02:12:26.553Z,249.49
2023-05-05T02:13:26.699Z,249.52
2023-05-05T02:14:26.692Z,248.67
2023-05-05T02:15:26.721Z,248.85
2023-05-05T02:16:26.798Z,249.38
2023-05-05T02:17:26.931Z,248.85
2023-05-05T02:18:26.813Z,248.85
2023-05-05T02:19:26.932Z,249.05
2023-05-05T02:20:26.945Z,248.65
2023-05-05T02:21:27.035Z,248.87
2023-05-05T02:22:27.086Z,249.89
2023-05-05T02:23:27.129Z,248.80
2023-05-05T02:24:27.170Z,249.04
2023-05-05T02:25:27.197Z,248.59
2023-05-05T02:26:27.279Z,249.28
2023-05-05T02:27:27.326Z,249.28
2023-05-05T02:28:27.386Z,249.48
2023-05-05T02:29:27.428Z,248.75
2023-05-05T02:30:27.463Z,248.69
2023-05-05T02:31:27.596Z,249.25
2023-05-05T02:32:27.677Z,248.82
2023-05-05T02:33:27.629Z,248.63
2023-05-05T02:34:27.643Z,249.11
2023-05-05T02:35:27.664Z,248.54
2023-05-05T02:36:27.710Z,248.78
2023-05-05T02:37:27.795Z,248.88
2023-05-05T02:38:27.892Z,248.84
2023-05-05T02:39:27.913Z,248.58
2023-05-05T02:40:27.878Z,248.82
2023-05-05T02:41:27.962Z,248.54
2023-05-05T02:42:28.061Z,248.62
2023-05-05T02:43:28.168Z,248.05
2023-05-05T02:44:28.129Z,249.14
2023-05-05T02:45:28.143Z,249.23
2023-05-05T02:46:28.258Z,249.09
2023-05-05T02:47:28.329Z,249.65
2023-05-05T02:48:28.351Z,249.45
2023-05-05T02:49:28.397Z,248.72
2023-05-05T02:50:28.413Z,249.36
2023-05-05T02:51:28.473Z,249.05
2023-05-05T02:52:28.522Z,248.64
2023-05-05T02:53:28.650Z,248.49
2023-05-05T02:54:28.654Z,248.95
2023-05-05T02:55:28.698Z,249.76
2023-05-05T02:56:28.811Z,248.94
2023-05-05T02:57:28.860Z,249.21
2023-05-05T02:58:28.985Z,249.24
2023-05-05T02:59:28.940Z,249.00
2023-05-05T03:00:28.972Z,248.73
2023-05-05T03:01:29.127Z,248.89
2023-05-05T03:02:29.200Z,249.11
2023-05-05T03:03:29.276Z,248.76
2023-05-05T03:04:29.219Z,249.46
2023-05-05T03:05:29.288Z,249.05
2023-05-05T03:06:29.393Z,248.58
2023-05-05T03:07:29.417Z,248.96
2023-05-05T03:08:29.469Z,249.49
2023-05-05T03:09:29.480Z,248.83
2023-05-05T03:10:29.517Z,249.26
2023-05-05T03:11:29.624Z,248.84
2023-05-05T03:12:29.673Z,249.17
2023-05-05T03:13:29.751Z,249.30
2023-05-05T03:14:32.100Z,249.09
2023-05-05T03:15:29.761Z,249.30
2023-05-05T03:16:29.881Z,247.96
2023-05-05T03:17:29.714Z,248.56
2023-05-05T03:18:29.831Z,247.61
2023-05-05T03:19:29.717Z,247.95
2023-05-05T03:20:29.704Z,247.43
2023-05-05T03:21:29.739Z,248.20
2023-05-05T03:22:29.683Z,247.48
2023-05-05T03:23:29.700Z,248.03
2023-05-05T03:24:29.728Z,248.06
2023-05-05T03:25:29.719Z,247.97
2023-05-05T03:26:29.669Z,247.92
2023-05-05T03:27:29.736Z,247.58
2023-05-05T03:28:29.669Z,247.68
2023-05-05T03:29:29.638Z,248.61
2023-05-05T03:30:29.648Z,248.19
2023-05-05T03:31:29.677Z,247.87
2023-05-05T03:32:29.633Z,248.11
2023-05-05T03:33:29.671Z,247.92
2023-05-05T03:35:32.434Z,25.00
2023-05-05T03:36:32.417Z,25.00
2023-05-05T03:37:32.432Z,25.00
2023-05-05T03:38:32.455Z,25.00
2023-05-05T03:39:32.382Z,25.00
2023-05-05T03:40:43.088Z,25.00
2023-05-05T03:41:33.419Z,25.28
2023-05-05T03:42:32.384Z,25.69
2023-05-05T03:43:32.380Z,25.55
2023-05-05T03:44:32.377Z,23.42
2023-05-05T03:45:32.446Z,21.96
2023-05-05T03:46:32.356Z,26.26
2023-05-05T03:47:32.442Z,28.34
2023-05-05T03:48:32.353Z,27.70
2023-05-05T03:49:32.335Z,27.28
2023-05-05T03:50:32.376Z,27.11
2023-05-05T03:51:32.422Z,25.41
2023-05-05T03:52:32.454Z,27.00
2023-05-05T03:53:32.543Z,27.09
2023-05-05T03:54:32.608Z,29.66
2023-05-05T03:55:32.675Z,31.34
2023-05-05T03:56:32.696Z,27.01
2023-05-05T03:57:32.791Z,27.41
2023-05-05T03:58:32.843Z,26.73
2023-05-05T03:59:32.915Z,26.28
2023-05-05T04:00:32.978Z,26.86
2023-05-05T04:01:33.038Z,29.29
2023-05-05T04:02:33.166Z,30.05
2023-05-05T04:03:33.231Z,25.00
2023-05-05T04:04:33.247Z,27.42
2023-05-05T04:05:33.237Z,25.91
2023-05-05T04:06:33.278Z,26.49
2023-05-05T04:07:33.321Z,25.51
2023-05-05T04:08:33.346Z,26.03
2023-05-05T04:09:33.338Z,25.00
2023-05-05T04:10:33.342Z,26.37
2023-05-05T04:11:33.325Z,26.01
2023-05-05T04:12:33.334Z,26.07
2023-05-05T04:13:33.364Z,25.09
2023-05-05T04:14:33.428Z,26.21
2023-05-05T04:15:33.352Z,25.00
2023-05-05T04:16:33.412Z,25.45
2023-05-05T04:17:33.434Z,25.15
2023-05-05T04:18:33.496Z,25.18
2023-05-05T04:19:33.565Z,25.54
2023-05-05T04:20:33.595Z,25.00
2023-05-05T04:21:33.658Z,25.43
2023-05-05T04:22:33.820Z,27.09
2023-05-05T04:23:33.744Z,25.72
2023-05-05T04:24:33.813Z,25.00
2023-05-05T04:25:33.837Z,26.65
2023-05-05T04:26:33.859Z,26.29
2023-05-05T04:27:33.907Z,25.00
2023-05-05T04:28:33.872Z,28.28
2023-05-05T04:29:33.932Z,26.66
2023-05-05T04:30:33.885Z,25.00
2023-05-05T04:31:33.940Z,29.51
2023-05-05T04:32:33.975Z,28.75
2023-05-05T04:33:33.998Z,26.33
2023-05-05T04:34:33.938Z,31.46
2023-05-05T04:35:33.996Z,32.01
2023-05-05T04:36:33.983Z,27.60
2023-05-05T04:37:34.022Z,26.30
2023-05-05T04:38:34.078Z,25.15
2023-05-05T04:39:34.087Z,26.39
2023-05-05T04:40:34.137Z,26.76
2023-05-05T04:41:34.210Z,28.35
2023-05-05T04:42:34.217Z,27.26
2023-05-05T04:43:34.240Z,27.35
2023-05-05T04:44:34.276Z,26.84
2023-05-05T04:45:34.306Z,25.07
2023-05-05T04:46:34.390Z,25.00
2023-05-05T04:47:34.378Z,28.29
2023-05-05T04:48:34.506Z,28.98
2023-05-05T04:49:34.427Z,31.41
2023-05-05T04:50:34.506Z,33.84
2023-05-05T04:51:34.497Z,34.61
2023-05-05T04:52:34.537Z,35.40
2023-05-05T04:53:34.564Z,34.57
2023-05-05T04:54:34.623Z,36.81
2023-05-05T04:55:34.614Z,40.09
2023-05-05T04:56:34.645Z,42.18
2023-05-05T04:57:34.733Z,42.19
2023-05-05T04:58:34.746Z,44.09
2023-05-05T04:59:34.753Z,42.71
2023-05-05T05:00:34.820Z,43.41
2023-05-05T05:01:36.881Z,43.47
2023-05-05T05:02:34.823Z,47.33
2023-05-05T05:03:34.966Z,44.49
2023-05-05T05:04:34.779Z,43.41
2023-05-05T05:05:34.811Z,41.91
2023-05-05T05:06:34.789Z,39.91
2023-05-05T05:07:34.798Z,40.17
2023-05-05T05:08:34.818Z,36.59
2023-05-05T05:09:34.753Z,37.48
2023-05-05T05:10:34.794Z,38.02
2023-05-05T05:11:34.748Z,35.87
2023-05-05T05:12:34.786Z,34.24
2023-05-05T05:13:34.744Z,35.63
2023-05-05T05:14:34.746Z,32.85
2023-05-05T05:15:34.716Z,30.64
2023-05-05T05:16:34.784Z,30.17
2023-05-05T05:17:34.709Z,28.97
2023-05-05T05:18:34.743Z,28.01
2023-05-05T05:19:34.701Z,25.97
2023-05-05T05:20:34.695Z,26.22
2023-05-05T05:21:34.696Z,25.00
2023-05-05T05:22:34.656Z,25.71
2023-05-05T05:23:34.717Z,25.76
2023-05-05T05:24:34.652Z,26.86
2023-05-05T05:25:34.658Z,28.14
2023-05-05T05:26:34.675Z,25.71
2023-05-05T05:27:34.656Z,27.63
2023-05-05T05:28:34.649Z,26.95
2023-05-05T05:29:34.675Z,27.09
2023-05-05T05:30:34.656Z,27.14
2023-05-05T05:31:34.713Z,29.14
2023-05-05T05:32:34.722Z,31.04
2023-05-05T05:33:34.613Z,29.69
2023-05-05T05:34:34.682Z,32.29
2023-05-05T05:35:34.711Z,36.91
2023-05-05T05:36:34.709Z,37.53
2023-05-05T05:37:34.624Z,32.81
2023-05-05T05:38:34.589Z,30.92
2023-05-05T05:39:34.596Z,32.19
2023-05-05T05:40:34.568Z,31.51
2023-05-05T05:41:34.538Z,28.89
2023-05-05T05:42:34.533Z,32.74
2023-05-05T05:43:34.523Z,32.83
2023-05-05T05:44:34.678Z,36.17
2023-05-05T05:45:34.545Z,29.70
2023-05-05T05:46:34.560Z,26.56
2023-05-05T05:47:34.559Z,30.00
2023-05-05T05:48:34.630Z,38.65
2023-05-05T05:49:34.725Z,49.31
2023-05-05T05:50:34.558Z,48.45
2023-05-05T05:51:34.595Z,50.50
2023-05-05T05:52:34.568Z,54.65
2023-05-05T05:53:34.600Z,54.50
2023-05-05T05:54:34.791Z,54.78
2023-05-05T05:55:34.731Z,56.97
2023-05-05T05:56:34.649Z,57.58
2023-05-05T05:57:35.187Z,60.20
2023-05-05T05:58:34.753Z,62.28
2023-05-05T05:59:34.717Z,62.30
2023-05-05T06:00:34.738Z,63.53
2023-05-05T06:01:34.748Z,68.02
2023-05-05T06:02:35.561Z,70.79
2023-05-05T06:03:34.906Z,74.01
2023-05-05T06:04:34.863Z,73.97
2023-05-05T06:05:34.819Z,74.37
2023-05-05T06:06:34.854Z,78.65
2023-05-05T06:07:34.896Z,80.93
2023-05-05T06:08:35.658Z,84.18
2023-05-05T06:09:34.855Z,87.82
2023-05-05T06:10:35.338Z,88.51
2023-05-05T06:11:34.967Z,89.04
2023-05-05T06:12:34.955Z,94.16
2023-05-05T06:13:35.178Z,98.44
2023-05-05T06:14:34.921Z,102.46
2023-05-05T06:15:34.973Z,103.83
2023-05-05T06:16:35.016Z,107.18
2023-05-05T06:17:34.932Z,104.38
2023-05-05T06:18:35.172Z,106.79
2023-05-05T06:19:34.949Z,110.13
2023-05-05T06:20:34.982Z,110.74
2023-05-05T06:21:35.044Z,110.66
2023-05-05T06:22:34.993Z,112.41
2023-05-05T06:23:35.009Z,116.35
2023-05-05T06:24:34.983Z,114.80
2023-05-05T06:25:35.019Z,123.76
2023-05-05T06:26:35.016Z,133.09
2023-05-05T06:27:35.027Z,138.90
2023-05-05T06:28:35.168Z,134.25
2023-05-05T06:29:35.051Z,131.91
2023-05-05T06:30:35.067Z,131.87
2023-05-05T06:31:35.086Z,131.75
2023-05-05T06:32:35.044Z,129.09
2023-05-05T06:33:35.081Z,129.59
2023-05-05T06:34:35.101Z,136.24
2023-05-05T06:35:35.202Z,141.64
2023-05-05T06:36:35.242Z,141.89
2023-05-05T06:37:35.166Z,141.14
2023-05-05T06:38:35.171Z,136.36
2023-05-05T06:39:35.215Z,140.28
2023-05-05T06:40:35.742Z,141.29
2023-05-05T06:41:35.190Z,141.88
2023-05-05T06:42:35.166Z,140.42
2023-05-05T06:43:35.181Z,136.11
2023-05-05T06:44:35.163Z,138.16
2023-05-05T06:45:35.167Z,137.97
2023-05-05T06:46:35.260Z,127.10
2023-05-05T06:47:35.214Z,121.87
2023-05-05T06:48:35.178Z,114.98
2023-05-05T06:49:35.186Z,109.25
2023-05-05T06:50:35.197Z,110.84
2023-05-05T06:51:35.170Z,107.29
2023-05-05T06:52:35.264Z,101.94
2023-05-05T06:53:35.693Z,90.25
2023-05-05T06:54:35.728Z,88.35
2023-05-05T06:55:35.244Z,101.61
2023-05-05T06:56:35.749Z,115.10
2023-05-05T06:57:35.237Z,125.10
2023-05-05T06:58:35.708Z,131.38
2023-05-05T06:59:35.523Z,132.61
2023-05-05T07:00:35.339Z,129.38
2023-05-05T07:01:35.324Z,128.91
2023-05-05T07:02:35.373Z,130.40
2023-05-05T07:03:35.395Z,138.82
2023-05-05T07:04:35.728Z,153.60
2023-05-05T07:05:35.352Z,150.01
2023-05-05T07:06:35.367Z,147.03
2023-05-05T07:07:35.423Z,141.73
2023-05-05T07:08:35.740Z,137.09
2023-05-05T07:09:35.498Z,133.19
2023-05-05T07:10:35.509Z,131.34
2023-05-05T07:11:35.570Z,136.79
2023-05-05T07:12:35.569Z,139.23
2023-05-05T07:13:35.704Z,134.83
2023-05-05T07:14:35.663Z,138.11
2023-05-05T07:15:35.719Z,137.68
2023-05-05T07:16:35.756Z,129.75
2023-05-05T07:17:35.827Z,134.52
2023-05-05T07:18:35.838Z,134.30
2023-05-05T07:19:35.872Z,130.81
2023-05-05T07:20:35.955Z,132.64
2023-05-05T07:21:36.031Z,147.99
2023-05-05T07:22:36.074Z,147.82
2023-05-05T07:23:36.368Z,146.03
2023-05-05T07:24:36.289Z,142.52
2023-05-05T07:25:36.196Z,137.24
2023-05-05T07:26:36.197Z,135.65
2023-05-05T07:27:36.283Z,144.44
2023-05-05T07:28:36.281Z,144.64
2023-05-05T07:29:36.409Z,137.52
2023-05-05T07:30:36.404Z,138.41
2023-05-05T07:31:36.851Z,140.42
2023-05-05T07:32:36.586Z,147.43
2023-05-05T07:33:36.562Z,138.69
2023-05-05T07:34:36.577Z,139.04
2023-05-05T07:35:36.746Z,118.60
2023-05-05T07:36:36.568Z,111.80
2023-05-05T07:37:36.577Z,107.64
2023-05-05T07:38:36.803Z,118.12
2023-05-05T07:39:36.766Z,116.78
2023-05-05T07:40:36.794Z,106.21
2023-05-05T07:41:36.608Z,97.12
2023-05-05T07:42:36.699Z,87.77
2023-05-05T07:43:38.313Z,73.66
2023-05-05T07:44:37.292Z,57.19
2023-05-05T07:45:36.886Z,55.21
2023-05-05T07:46:37.006Z,59.38
2023-05-05T07:47:36.978Z,59.91
2023-05-05T07:48:36.930Z,49.87
2023-05-05T07:49:36.890Z,42.13
2023-05-05T07:50:37.200Z,26.79
2023-05-05T07:51:36.920Z,29.45
2023-05-05T07:52:45.222Z,26.56
2023-05-05T07:53:37.889Z,26.85
2023-05-05T07:54:36.927Z,27.77
2023-05-05T07:55:37.219Z,29.49
2023-05-05T07:56:36.917Z,34.27
2023-05-05T07:57:36.909Z,23.30
2023-05-05T07:58:36.904Z,25.00
2023-05-05T07:59:36.823Z,35.13
2023-05-05T08:00:37.278Z,38.78
2023-05-05T08:01:36.842Z,28.50
2023-05-05T08:02:36.996Z,25.00
2023-05-05T08:03:37.273Z,25.00
2023-05-05T08:04:37.050Z,34.18
2023-05-05T08:05:37.063Z,42.39
2023-05-05T08:06:37.094Z,37.93
2023-05-05T08:07:37.163Z,21.42
2023-05-05T08:08:37.220Z,39.19
2023-05-05T08:09:37.285Z,23.65
2023-05-05T08:10:37.317Z,45.08
2023-05-05T08:11:37.396Z,29.29
2023-05-05T08:12:37.505Z,43.99
2023-05-05T08:13:37.465Z,35.44
2023-05-05T08:14:37.518Z,25.16
2023-05-05T08:15:37.657Z,33.20
2023-05-05T08:16:37.680Z,14.20
2023-05-05T08:17:37.803Z,15.64
2023-05-05T08:18:37.779Z,32.66
2023-05-05T08:19:37.868Z,23.98
2023-05-05T08:20:38.279Z,45.80
2023-05-05T08:21:37.835Z,27.41
2023-05-05T08:22:37.821Z,40.07
2023-05-05T08:23:37.998Z,42.86
2023-05-05T08:24:37.944Z,39.25
2023-05-05T08:25:38.014Z,35.89
2023-05-05T08:26:38.047Z,70.48
2023-05-05T08:27:38.160Z,79.55
2023-05-05T08:28:38.168Z,92.41
2023-05-05T08:29:38.248Z,105.97
2023-05-05T08:30:38.287Z,115.85
2023-05-05T08:31:38.438Z,121.10
2023-05-05T08:32:38.505Z,124.11
2023-05-05T08:33:38.475Z,119.01
2023-05-05T08:34:38.592Z,101.95
2023-05-05T08:35:38.606Z,103.87
2023-05-05T08:36:38.544Z,92.68
2023-05-05T08:37:38.820Z,87.08
2023-05-05T08:38:38.656Z,91.26
2023-05-05T08:39:39.297Z,57.69
2023-05-05T08:40:38.737Z,49.59
2023-05-05T08:41:38.732Z,61.40
2023-05-05T08:42:39.721Z,55.65
2023-05-05T08:43:38.696Z,36.58
2023-05-05T08:44:38.702Z,42.22
2023-05-05T08:45:38.702Z,46.20
2023-05-05T08:46:39.304Z,34.76
2023-05-05T08:47:39.030Z,31.08
2023-05-05T08:48:38.821Z,66.11
2023-05-05T08:49:38.841Z,67.67
2023-05-05T08:50:38.892Z,45.56
2023-05-05T08:51:38.943Z,38.66
2023-05-05T08:52:38.956Z,22.88
2023-05-05T08:53:39.003Z,29.19
2023-05-05T08:54:39.268Z,53.58
2023-05-05T08:55:39.136Z,25.72
2023-05-05T08:56:39.197Z,52.71
2023-05-05T08:57:39.269Z,37.56
2023-05-05T08:58:39.294Z,26.56
2023-05-05T08:59:39.373Z,32.06
2023-05-05T09:00:39.424Z,25.00
2023-05-05T09:01:39.500Z,42.46
2023-05-05T09:02:39.604Z,32.08
2023-05-05T09:03:39.648Z,25.56
2023-05-05T09:04:39.763Z,32.00
2023-05-05T09:05:39.738Z,25.06
2023-05-05T09:06:39.744Z,28.53
2023-05-05T09:07:39.998Z,50.84
2023-05-05T09:08:39.908Z,29.56
2023-05-05T09:09:39.945Z,43.02
2023-05-05T09:10:39.990Z,27.81
2023-05-05T09:11:39.998Z,39.98
2023-05-05T09:12:40.407Z,25.14
2023-05-05T09:13:40.294Z,28.63
2023-05-05T09:14:40.026Z,24.55
2023-05-05T09:15:40.094Z,25.00
2023-05-05T09:16:40.272Z,29.24
2023-05-05T09:17:40.230Z,39.54
2023-05-05T09:18:40.233Z,12.70
2023-05-05T09:19:40.767Z,30.80
2023-05-05T09:20:40.350Z,24.07
2023-05-05T09:21:40.438Z,28.87
2023-05-05T09:22:40.522Z,21.84
2023-05-05T09:23:40.816Z,34.96
2023-05-05T09:24:40.616Z,31.28
2023-05-05T09:25:40.684Z,29.52
2023-05-05T09:26:40.737Z,38.19
2023-05-05T09:27:40.802Z,53.70
2023-05-05T09:28:41.246Z,51.33
2023-05-05T09:29:40.848Z,79.69
2023-05-05T09:30:41.325Z,113.70
2023-05-05T09:31:41.255Z,141.69
2023-05-05T09:32:40.991Z,117.72
2023-05-05T09:33:41.051Z,143.03
2023-05-05T09:34:41.060Z,149.00
2023-05-05T09:35:41.152Z,132.71
2023-05-05T09:36:41.330Z,134.20
2023-05-05T09:37:41.242Z,114.39
2023-05-05T09:38:41.296Z,104.35
2023-05-05T09:39:41.419Z,52.90
2023-05-05T09:40:41.330Z,40.82
2023-05-05T09:41:41.415Z,47.67
2023-05-05T09:42:41.444Z,64.05
2023-05-05T09:43:41.845Z,81.26
2023-05-05T09:44:41.449Z,25.54
2023-05-05T09:45:41.465Z,24.60
2023-05-05T09:46:43.375Z,0.00
2023-05-05T09:47:41.561Z,0.00
2023-05-05T09:48:41.800Z,21.30
2023-05-05T09:49:41.594Z,0.00
2023-05-05T09:50:41.627Z,25.00
2023-05-05T09:51:41.655Z,63.44
2023-05-05T09:52:41.688Z,0.00
2023-05-05T09:53:41.813Z,40.72
2023-05-05T09:54:41.737Z,120.51
2023-05-05T09:55:41.853Z,139.60
2023-05-05T09:56:41.817Z,122.24
2023-05-05T09:57:41.847Z,118.80
2023-05-05T09:58:41.941Z,156.00
2023-05-05T09:59:42.267Z,142.34
2023-05-05T10:00:41.956Z,147.07
2023-05-05T10:01:42.013Z,188.99
2023-05-05T10:02:42.191Z,221.42
2023-05-05T10:03:42.080Z,212.99
2023-05-05T10:04:42.165Z,194.76
2023-05-05T10:05:42.113Z,229.00
2023-05-05T10:06:42.193Z,247.01
2023-05-05T10:07:42.255Z,221.63
2023-05-05T10:08:42.266Z,275.14
2023-05-05T10:09:42.419Z,262.31
2023-05-05T10:10:42.375Z,269.51
2023-05-05T10:11:42.537Z,256.67
2023-05-05T10:12:42.820Z,249.30
2023-05-05T10:13:42.571Z,249.47
2023-05-05T10:14:42.620Z,225.26
2023-05-05T10:15:43.310Z,243.48
2023-05-05T10:16:42.828Z,250.63
2023-05-05T10:17:53.914Z,216.48
2023-05-05T10:18:43.661Z,216.48
2023-05-05T10:19:42.630Z,217.85
2023-05-05T10:20:42.618Z,222.86
2023-05-05T10:21:42.625Z,238.89
2023-05-05T10:22:42.595Z,262.45
2023-05-05T10:23:42.616Z,241.53
2023-05-05T10:24:42.609Z,232.62
2023-05-05T10:25:42.570Z,235.98
2023-05-05T10:26:43.303Z,246.53
2023-05-05T10:27:42.691Z,225.41
2023-05-05T10:28:42.567Z,182.46
2023-05-05T10:29:42.580Z,170.39
2023-05-05T10:30:42.572Z,179.44
2023-05-05T10:31:42.569Z,172.42
2023-05-05T10:33:42.638Z,137.88
2023-05-05T10:34:42.565Z,114.35
2023-05-05T10:35:42.570Z,134.22
2023-05-05T10:36:42.566Z,162.52
2023-05-05T10:37:42.812Z,184.88
2023-05-05T10:38:42.526Z,185.24
2023-05-05T10:39:42.481Z,166.08
2023-05-05T10:40:42.524Z,165.99
2023-05-05T10:41:42.784Z,201.00
2023-05-05T10:42:42.486Z,216.45
2023-05-05T10:43:42.545Z,228.56
2023-05-05T10:44:42.528Z,228.11
2023-05-05T10:45:42.584Z,236.67
2023-05-05T10:46:42.586Z,238.58
2023-05-05T10:47:42.518Z,249.17
2023-05-05T10:48:43.328Z,242.38
2023-05-05T10:49:43.290Z,228.34
2023-05-05T10:50:42.427Z,228.30
2023-05-05T10:51:42.804Z,231.70
2023-05-05T10:52:42.814Z,227.10
2023-05-05T10:53:43.309Z,237.89
2023-05-05T10:54:42.430Z,249.83
2023-05-05T10:55:42.844Z,245.22
2023-05-05T10:56:42.444Z,235.82
2023-05-05T10:57:42.383Z,250.28
2023-05-05T10:58:58.344Z,238.48
2023-05-05T10:59:43.570Z,239.03
2023-05-05T11:00:42.383Z,242.29
2023-05-05T11:01:42.396Z,243.54
2023-05-05T11:02:42.914Z,245.87
2023-05-05T11:03:42.408Z,263.40
2023-05-05T11:04:42.320Z,259.64
2023-05-05T11:05:42.356Z,244.58
2023-05-05T11:06:42.816Z,256.39
2023-05-05T11:07:42.371Z,251.90
2023-05-05T11:08:42.303Z,201.90
2023-05-05T11:09:42.324Z,196.21
2023-05-05T11:10:42.443Z,198.06
2023-05-05T11:11:42.326Z,165.46
2023-05-05T11:12:42.459Z,131.49
2023-05-05T11:13:42.314Z,122.14
2023-05-05T11:14:42.249Z,61.62
2023-05-05T11:15:42.373Z,65.50
2023-05-05T11:16:42.293Z,74.92
2023-05-05T11:17:42.279Z,76.56
2023-05-05T11:18:42.307Z,100.97
2023-05-05T11:19:42.298Z,130.08
2023-05-05T11:20:42.303Z,145.51
2023-05-05T11:21:42.338Z,158.79
2023-05-05T11:22:42.375Z,174.15
2023-05-05T11:23:42.301Z,179.67
2023-05-05T11:24:42.366Z,176.14
2023-05-05T11:25:42.385Z,176.06
2023-05-05T11:26:42.384Z,188.03
2023-05-05T11:27:42.366Z,191.35
2023-05-05T11:28:42.377Z,183.62
2023-05-05T11:29:42.524Z,186.50
2023-05-05T11:30:42.438Z,181.61
2023-05-05T11:31:42.591Z,183.76
2023-05-05T11:32:42.511Z,183.51
2023-05-05T11:33:42.436Z,184.51
2023-05-05T11:34:42.522Z,177.82
2023-05-05T11:35:42.497Z,180.38
2023-05-05T11:36:42.523Z,176.95
2023-05-05T11:37:42.468Z,178.16
2023-05-05T11:38:42.517Z,177.45
2023-05-05T11:39:42.533Z,177.73
2023-05-05T11:40:42.536Z,175.31
2023-05-05T11:41:42.531Z,171.81
2023-05-05T11:42:42.538Z,169.38
2023-05-05T11:43:42.566Z,163.40
2023-05-05T11:44:42.598Z,167.31
2023-05-05T11:45:42.591Z,165.11
2023-05-05T11:46:42.689Z,165.64
2023-05-05T11:47:42.918Z,164.88
2023-05-05T11:48:42.618Z,163.72
2023-05-05T11:49:42.613Z,165.24
2023-05-05T11:50:42.622Z,162.42
2023-05-05T11:51:42.706Z,153.50
2023-05-05T11:52:42.671Z,155.32
2023-05-05T11:53:42.684Z,153.90
2023-05-05T11:54:42.725Z,151.52
2023-05-05T11:55:42.753Z,154.36
2023-05-05T11:56:42.807Z,144.04
2023-05-05T11:57:42.777Z,142.08
2023-05-05T11:58:42.792Z,145.89
2023-05-05T11:59:42.866Z,165.06
2023-05-05T12:00:42.943Z,197.66
2023-05-05T12:01:42.849Z,208.02
2023-05-05T12:02:42.949Z,208.13
2023-05-05T12:03:43.056Z,214.13
2023-05-05T12:04:42.983Z,226.02
2023-05-05T12:05:42.968Z,228.44
2023-05-05T12:06:42.953Z,235.95
2023-05-05T12:07:43.033Z,243.95
2023-05-05T12:08:42.992Z,250.00
2023-05-05T12:09:43.045Z,250.19
2023-05-05T12:10:43.097Z,246.67
2023-05-05T12:11:43.092Z,249.81
2023-05-05T12:12:43.215Z,249.96
2023-05-05T12:13:43.119Z,248.57
2023-05-05T12:14:43.169Z,247.25
2023-05-05T12:15:43.180Z,246.94
2023-05-05T12:16:43.299Z,242.64
2023-05-05T12:17:43.333Z,249.57
2023-05-05T12:18:43.274Z,248.57
2023-05-05T12:19:43.340Z,250.32
2023-05-05T12:20:43.325Z,247.23
2023-05-05T12:21:43.354Z,249.93
2023-05-05T12:22:43.432Z,250.46
2023-05-05T12:23:43.444Z,247.97
2023-05-05T12:24:43.452Z,248.13
2023-05-05T12:25:43.494Z,246.36
2023-05-05T12:26:43.516Z,247.51
2023-05-05T12:27:43.561Z,241.62
2023-05-05T12:28:43.577Z,244.60
2023-05-05T12:29:43.588Z,247.34
2023-05-05T12:30:43.637Z,243.58
2023-05-05T12:31:43.673Z,247.42
2023-05-05T12:32:43.805Z,250.09
2023-05-05T12:33:43.728Z,249.17
2023-05-05T12:34:43.699Z,249.07
2023-05-05T12:35:43.918Z,248.50
2023-05-05T12:36:43.849Z,246.01
2023-05-05T12:37:43.809Z,250.00
2023-05-05T12:38:43.857Z,249.82
2023-05-05T12:39:43.888Z,246.94